Mariposa, California
Current Conditions -  °F | °C
As of 2:53 PM on Saturday 20 Dec 2014 (Local Time) from KMCE Reporting Station
Scattered Clouds Scattered Clouds  
Wind Chill: 59°   Ceiling: Unl
Heat Index: 59°   Visibility: 10mi
Dew Point: 52°   Wind: 3mph
Humidity: 78%   Direction: NA
Pressure: 30.2"   Gusts: NA
Location:  37.49°N, 119.97°W
Report Text: KMCE 202253Z AUTO VRB03KT 10SM FEW022 SCT100 15/11 A3020 RMK AO2 SLP228 T01500111
Loading
Personal Weather Stations






























Interactive Weather Map New forecast layout! Learn more

10-Day Weather Forecast

Advertisements
Track Severe Weather on mobile